KMGG

Maple Lake Municipal-Bill Mavencamp Sr Field Airport

Maple Lake, Minnesota, USA
METAR KMGG 181435Z AUTO 00000KT 1 3/4SM BR OVC001 19/19 A3011 RMK AO2 T01890187
Observed Flight Rules
Aug-18 @ 14:35 UTC (16 minutes ago) Instrument Flight Rules
Visibility Clouds Conditions
1 3/4 miles
  • Overcast at 100' AGL
  • Mist
Temperatures Readings
Current 19°C / 66°F
Dewpoint 19°C / 66°F
Humidity 100%
Altimeter 30.11" Hg
Pressure 1020 hPa
Elevation 313
METAR KMGG 181435Z AUTO 00000KT 1 3/4SM BR OVC001 19/19 A3011 RMK AO2 T01890187
Observed Flight Rules
Aug-18 @ 14:35 UTC
(16 minutes ago)
LIFR
Clouds
  • Overcast at 100' AGL
Conditions
  • Mist
Temperature Dewpoint
19°C / 66°F 19°C / 66°F
Humidity Altimeter Pressure
100% 30.11" Hg 1020 hPa